sensor_id;sensor_type;location;lat;lon;timestamp;pressure;altitude;pressure_sealevel;temperature;humidity
7802;BME280;3945;48.952;9.506;2023-05-20T00:00:31;98036.34;;;13.05;82.67
7802;BME280;3945;48.952;9.506;2023-05-20T00:02:58;98042.25;;;13.07;82.47
7802;BME280;3945;48.952;9.506;2023-05-20T00:05:27;98043.44;;;13.16;82.10
7802;BME280;3945;48.952;9.506;2023-05-20T00:07:53;98039.19;;;13.20;81.69
7802;BME280;3945;48.952;9.506;2023-05-20T00:10:20;98046.38;;;13.19;81.49
7802;BME280;3945;48.952;9.506;2023-05-20T00:12:47;98037.34;;;13.25;81.15
7802;BME280;3945;48.952;9.506;2023-05-20T00:15:13;98036.84;;;13.28;81.34
7802;BME280;3945;48.952;9.506;2023-05-20T00:17:40;98041.63;;;13.26;81.50
7802;BME280;3945;48.952;9.506;2023-05-20T00:20:07;98032.88;;;13.31;81.25
7802;BME280;3945;48.952;9.506;2023-05-20T00:22:35;98041.94;;;13.30;80.85
7802;BME280;3945;48.952;9.506;2023-05-20T00:25:02;98024.31;;;13.34;80.56
7802;BME280;3945;48.952;9.506;2023-05-20T00:27:29;98031.03;;;13.37;80.75
7802;BME280;3945;48.952;9.506;2023-05-20T00:29:55;98025.13;;;13.35;81.22
7802;BME280;3945;48.952;9.506;2023-05-20T00:32:23;98027.00;;;13.34;81.43
7802;BME280;3945;48.952;9.506;2023-05-20T00:34:55;98024.31;;;13.34;80.78
7802;BME280;3945;48.952;9.506;2023-05-20T00:37:22;98024.06;;;13.36;80.96
7802;BME280;3945;48.952;9.506;2023-05-20T00:39:50;98015.00;;;13.37;80.91
7802;BME280;3945;48.952;9.506;2023-05-20T00:42:20;98019.03;;;13.39;81.19
7802;BME280;3945;48.952;9.506;2023-05-20T00:44:46;98019.53;;;13.36;80.74
7802;BME280;3945;48.952;9.506;2023-05-20T00:47:13;98027.06;;;13.39;81.07
7802;BME280;3945;48.952;9.506;2023-05-20T00:49:40;98018.72;;;13.36;81.63
7802;BME280;3945;48.952;9.506;2023-05-20T00:52:07;98028.63;;;13.35;80.93
7802;BME280;3945;48.952;9.506;2023-05-20T00:54:34;98016.63;;;13.38;81.58
7802;BME280;3945;48.952;9.506;2023-05-20T00:57:04;98023.03;;;13.37;81.32
7802;BME280;3945;48.952;9.506;2023-05-20T00:59:32;98017.72;;;13.42;80.70
7802;BME280;3945;48.952;9.506;2023-05-20T01:01:59;98011.56;;;13.41;81.60
7802;BME280;3945;48.952;9.506;2023-05-20T01:04:26;98017.22;;;13.45;81.06
7802;BME280;3945;48.952;9.506;2023-05-20T01:06:53;98012.91;;;13.44;81.27
7802;BME280;3945;48.952;9.506;2023-05-20T01:09:20;98004.66;;;13.45;81.33
7802;BME280;3945;48.952;9.506;2023-05-20T01:11:51;98001.72;;;13.47;81.36
7802;BME280;3945;48.952;9.506;2023-05-20T01:14:24;98004.66;;;13.45;81.30
7802;BME280;3945;48.952;9.506;2023-05-20T01:16:53;98004.91;;;13.44;80.97
7802;BME280;3945;48.952;9.506;2023-05-20T01:19:28;97999.81;;;13.42;81.46
7802;BME280;3945;48.952;9.506;2023-05-20T01:21:59;98000.59;;;13.43;81.45
7802;BME280;3945;48.952;9.506;2023-05-20T01:24:28;98003.81;;;13.40;82.03
7802;BME280;3945;48.952;9.506;2023-05-20T01:26:54;97993.38;;;13.38;81.84
7802;BME280;3945;48.952;9.506;2023-05-20T01:29:22;97992.03;;;13.41;81.34
7802;BME280;3945;48.952;9.506;2023-05-20T01:31:50;98002.19;;;13.39;81.73
7802;BME280;3945;48.952;9.506;2023-05-20T01:34:19;97991.75;;;13.37;81.73
7802;BME280;3945;48.952;9.506;2023-05-20T01:36:46;97993.38;;;13.38;81.66
7802;BME280;3945;48.952;9.506;2023-05-20T01:39:13;97984.50;;;13.33;82.20
7802;BME280;3945;48.952;9.506;2023-05-20T01:41:41;97990.38;;;13.29;82.00
7802;BME280;3945;48.952;9.506;2023-05-20T01:44:08;97986.31;;;13.27;82.63
7802;BME280;3945;48.952;9.506;2023-05-20T01:46:35;97994.59;;;13.25;82.26
7802;BME280;3945;48.952;9.506;2023-05-20T01:49:01;97993.25;;;13.23;82.67
7802;BME280;3945;48.952;9.506;2023-05-20T01:51:28;97992.19;;;13.24;82.87
7802;BME280;3945;48.952;9.506;2023-05-20T01:53:57;97988.72;;;13.23;82.48
7802;BME280;3945;48.952;9.506;2023-05-20T01:56:24;98000.47;;;13.22;83.24
7802;BME280;3945;48.952;9.506;2023-05-20T01:58:52;97992.69;;;13.21;82.77
7802;BME280;3945;48.952;9.506;2023-05-20T02:01:19;97996.44;;;13.20;83.16
7802;BME280;3945;48.952;9.506;2023-05-20T02:03:45;97997.75;;;13.17;83.05
7802;BME280;3945;48.952;9.506;2023-05-20T02:06:12;97995.34;;;13.16;83.55
7802;BME280;3945;48.952;9.506;2023-05-20T02:08:38;97995.59;;;13.14;83.72
7802;BME280;3945;48.952;9.506;2023-05-20T02:11:05;97996.88;;;13.12;83.70
7802;BME280;3945;48.952;9.506;2023-05-20T02:13:32;97992.28;;;13.07;83.70
7802;BME280;3945;48.952;9.506;2023-05-20T02:16:00;97985.09;;;13.08;83.33
7802;BME280;3945;48.952;9.506;2023-05-20T02:18:26;97986.69;;;13.09;83.75
7802;BME280;3945;48.952;9.506;2023-05-20T02:20:53;97982.09;;;13.04;84.30
7802;BME280;3945;48.952;9.506;2023-05-20T02:23:19;97986.34;;;13.00;84.40
7802;BME280;3945;48.952;9.506;2023-05-20T02:25:46;97975.69;;;13.00;84.33
7802;BME280;3945;48.952;9.506;2023-05-20T02:28:12;97976.97;;;12.98;84.14
7802;BME280;3945;48.952;9.506;2023-05-20T02:30:40;97972.72;;;12.97;84.67
7802;BME280;3945;48.952;9.506;2023-05-20T02:33:08;97979.13;;;12.96;84.29
7802;BME280;3945;48.952;9.506;2023-05-20T02:35:34;97976.94;;;12.93;84.93
7802;BME280;3945;48.952;9.506;2023-05-20T02:38:01;97971.59;;;12.93;84.71
7802;BME280;3945;48.952;9.506;2023-05-20T02:40:28;97976.38;;;12.90;85.11
7802;BME280;3945;48.952;9.506;2023-05-20T02:42:54;97985.75;;;12.93;84.88
7802;BME280;3945;48.952;9.506;2023-05-20T02:45:21;97982.28;;;12.93;84.62
7802;BME280;3945;48.952;9.506;2023-05-20T02:47:47;97978.53;;;12.88;85.23
7802;BME280;3945;48.952;9.506;2023-05-20T02:50:16;97974.78;;;12.89;84.83
7802;BME280;3945;48.952;9.506;2023-05-20T02:52:42;97968.66;;;12.89;84.82
7802;BME280;3945;48.952;9.506;2023-05-20T02:55:10;97970.75;;;12.87;85.07
7802;BME280;3945;48.952;9.506;2023-05-20T02:57:37;97974.50;;;12.86;85.35
7802;BME280;3945;48.952;9.506;2023-05-20T03:00:04;97968.91;;;12.87;85.15
7802;BME280;3945;48.952;9.506;2023-05-20T03:02:32;97971.81;;;12.86;85.21
7802;BME280;3945;48.952;9.506;2023-05-20T03:04:59;97967.28;;;12.86;85.19
7802;BME280;3945;48.952;9.506;2023-05-20T03:07:28;97974.25;;;12.87;85.70
7802;BME280;3945;48.952;9.506;2023-05-20T03:09:54;97972.63;;;12.86;85.62
7802;BME280;3945;48.952;9.506;2023-05-20T03:12:23;97965.41;;;12.87;85.34
7802;BME280;3945;48.952;9.506;2023-05-20T03:14:50;97968.66;;;12.89;85.38
7802;BME280;3945;48.952;9.506;2023-05-20T03:17:19;97969.75;;;12.93;85.10
7802;BME280;3945;48.952;9.506;2023-05-20T03:19:46;97978.56;;;12.94;85.51
7802;BME280;3945;48.952;9.506;2023-05-20T03:22:12;97972.41;;;12.93;85.18
7802;BME280;3945;48.952;9.506;2023-05-20T03:24:40;97978.06;;;12.97;84.88
7802;BME280;3945;48.952;9.506;2023-05-20T03:27:08;97974.31;;;12.98;85.01
7802;BME280;3945;48.952;9.506;2023-05-20T03:29:35;97976.97;;;12.98;84.67
7802;BME280;3945;48.952;9.506;2023-05-20T03:32:02;97973.00;;;13.00;85.11
7802;BME280;3945;48.952;9.506;2023-05-20T03:34:28;97979.16;;;13.01;85.23
7802;BME280;3945;48.952;9.506;2023-05-20T03:36:55;97975.44;;;13.02;84.96
7802;BME280;3945;48.952;9.506;2023-05-20T03:39:24;97977.03;;;13.03;84.83
7802;BME280;3945;48.952;9.506;2023-05-20T03:41:52;97976.00;;;13.04;85.26
7802;BME280;3945;48.952;9.506;2023-05-20T03:44:18;97986.16;;;13.07;85.00
7802;BME280;3945;48.952;9.506;2023-05-20T03:46:45;97982.66;;;13.06;84.93
7802;BME280;3945;48.952;9.506;2023-05-20T03:49:12;97985.09;;;13.08;85.29
7802;BME280;3945;48.952;9.506;2023-05-20T03:51:38;97980.81;;;13.07;85.38
7802;BME280;3945;48.952;9.506;2023-05-20T03:54:05;97986.69;;;13.09;85.39
7802;BME280;3945;48.952;9.506;2023-05-20T03:56:32;97991.25;;;13.08;84.93
7802;BME280;3945;48.952;9.506;2023-05-20T03:58:59;97999.00;;;13.10;85.03
7802;BME280;3945;48.952;9.506;2023-05-20T04:01:27;97997.44;;;13.14;84.66
7802;BME280;3945;48.952;9.506;2023-05-20T04:03:54;97991.06;;;13.15;84.54
7802;BME280;3945;48.952;9.506;2023-05-20T04:06:20;97996.94;;;13.17;84.99
7802;BME280;3945;48.952;9.506;2023-05-20T04:08:47;97996.94;;;13.17;84.59
7802;BME280;3945;48.952;9.506;2023-05-20T04:11:14;97986.53;;;13.20;84.52
7802;BME280;3945;48.952;9.506;2023-05-20T04:13:41;97997.00;;;13.22;85.26
7802;BME280;3945;48.952;9.506;2023-05-20T04:16:09;97987.91;;;13.23;84.37
7802;BME280;3945;48.952;9.506;2023-05-20T04:18:36;97992.72;;;13.26;84.77
7802;BME280;3945;48.952;9.506;2023-05-20T04:21:03;97983.66;;;13.27;84.86
7802;BME280;3945;48.952;9.506;2023-05-20T04:23:30;97993.03;;;13.29;84.96
7802;BME280;3945;48.952;9.506;2023-05-20T04:25:57;97997.56;;;13.29;85.18
7802;BME280;3945;48.952;9.506;2023-05-20T04:28:26;97997.88;;;13.33;84.81
7802;BME280;3945;48.952;9.506;2023-05-20T04:30:57;97994.44;;;13.37;84.77
7802;BME280;3945;48.952;9.506;2023-05-20T04:33:25;97996.56;;;13.40;84.49
7802;BME280;3945;48.952;9.506;2023-05-20T04:35:52;97994.72;;;13.41;85.38
7802;BME280;3945;48.952;9.506;2023-05-20T04:38:23;97981.91;;;13.48;84.64
7802;BME280;3945;48.952;9.506;2023-05-20T04:40:54;97983.31;;;13.55;84.25
7802;BME280;3945;48.952;9.506;2023-05-20T04:43:22;97981.50;;;13.61;84.43
7802;BME280;3945;48.952;9.506;2023-05-20T04:45:49;97978.31;;;13.69;83.87
7802;BME280;3945;48.952;9.506;2023-05-20T04:48:17;97978.63;;;13.78;83.81
7802;BME280;3945;48.952;9.506;2023-05-20T04:50:46;97971.97;;;13.80;83.77
7802;BME280;3945;48.952;9.506;2023-05-20T04:53:13;97981.88;;;13.85;82.78
7802;BME280;3945;48.952;9.506;2023-05-20T04:55:40;97985.91;;;13.87;83.87
7802;BME280;3945;48.952;9.506;2023-05-20T04:58:07;97985.97;;;13.97;83.14
7802;BME280;3945;48.952;9.506;2023-05-20T05:00:39;97984.63;;;14.05;83.00
7802;BME280;3945;48.952;9.506;2023-05-20T05:03:06;97983.06;;;14.14;82.86
7802;BME280;3945;48.952;9.506;2023-05-20T05:05:33;97979.88;;;14.17;82.27
7802;BME280;3945;48.952;9.506;2023-05-20T05:08:02;97970.78;;;14.23;82.72
7802;BME280;3945;48.952;9.506;2023-05-20T05:10:29;97977.25;;;14.32;81.99
7802;BME280;3945;48.952;9.506;2023-05-20T05:12:55;97983.13;;;14.34;81.95
7802;BME280;3945;48.952;9.506;2023-05-20T05:15:22;97976.72;;;14.35;82.07
7802;BME280;3945;48.952;9.506;2023-05-20T05:17:49;97968.47;;;14.42;81.56
7802;BME280;3945;48.952;9.506;2023-05-20T05:20:16;97970.06;;;14.48;80.88
7802;BME280;3945;48.952;9.506;2023-05-20T05:22:43;97967.94;;;14.55;81.27
7802;BME280;3945;48.952;9.506;2023-05-20T05:25:11;97967.72;;;14.62;80.86
7802;BME280;3945;48.952;9.506;2023-05-20T05:27:38;97961.56;;;14.66;80.31
7802;BME280;3945;48.952;9.506;2023-05-20T05:30:05;97964.78;;;14.68;80.54
7802;BME280;3945;48.952;9.506;2023-05-20T05:32:32;97962.09;;;14.73;80.70
7802;BME280;3945;48.952;9.506;2023-05-20T05:34:59;97961.84;;;14.80;80.80
7802;BME280;3945;48.952;9.506;2023-05-20T05:37:25;97968.81;;;14.86;80.57
7802;BME280;3945;48.952;9.506;2023-05-20T05:39:52;97963.97;;;14.93;80.58
7802;BME280;3945;48.952;9.506;2023-05-20T05:42:20;97955.16;;;15.03;80.26
7802;BME280;3945;48.952;9.506;2023-05-20T05:44:47;97952.44;;;15.13;79.58
7802;BME280;3945;48.952;9.506;2023-05-20T05:47:14;97948.69;;;15.24;78.46
7802;BME280;3945;48.952;9.506;2023-05-20T05:49:40;97951.38;;;15.34;78.57
7802;BME280;3945;48.952;9.506;2023-05-20T05:52:07;97949.75;;;15.48;78.57
7802;BME280;3945;48.952;9.506;2023-05-20T05:54:34;97947.31;;;15.52;77.55
7802;BME280;3945;48.952;9.506;2023-05-20T05:57:00;97944.09;;;15.60;77.06
7802;BME280;3945;48.952;9.506;2023-05-20T05:59:28;97945.69;;;15.66;77.05
7802;BME280;3945;48.952;9.506;2023-05-20T06:01:55;97953.72;;;15.76;76.68
7802;BME280;3945;48.952;9.506;2023-05-20T06:04:21;97954.75;;;15.90;76.92
7802;BME280;3945;48.952;9.506;2023-05-20T06:06:48;97958.44;;;16.05;76.89
7802;BME280;3945;48.952;9.506;2023-05-20T06:09:15;97949.81;;;16.13;75.77
7802;BME280;3945;48.952;9.506;2023-05-20T06:11:41;97946.81;;;16.24;74.95
7802;BME280;3945;48.952;9.506;2023-05-20T06:14:08;97944.38;;;16.28;75.97
7802;BME280;3945;48.952;9.506;2023-05-20T06:16:36;97943.19;;;16.44;76.68
7802;BME280;3945;48.952;9.506;2023-05-20T06:19:03;97950.63;;;16.57;74.42
7802;BME280;3945;48.952;9.506;2023-05-20T06:21:30;97946.06;;;16.63;73.93
7802;BME280;3945;48.952;9.506;2023-05-20T06:23:57;97944.47;;;16.62;73.58
7802;BME280;3945;48.952;9.506;2023-05-20T06:26:24;97935.31;;;16.58;73.28
7802;BME280;3945;48.952;9.506;2023-05-20T06:28:50;97940.16;;;16.61;74.17
7802;BME280;3945;48.952;9.506;2023-05-20T06:31:17;97930.41;;;16.75;74.20
7802;BME280;3945;48.952;9.506;2023-05-20T06:33:45;97922.28;;;16.85;73.83
7802;BME280;3945;48.952;9.506;2023-05-20T06:36:12;97914.09;;;16.95;73.73
7802;BME280;3945;48.952;9.506;2023-05-20T06:38:39;97909.94;;;17.08;72.42
7802;BME280;3945;48.952;9.506;2023-05-20T06:41:05;97905.16;;;17.34;72.95
7802;BME280;3945;48.952;9.506;2023-05-20T06:43:32;97911.84;;;17.60;72.03
7802;BME280;3945;48.952;9.506;2023-05-20T06:45:59;97914.69;;;17.74;70.37
7802;BME280;3945;48.952;9.506;2023-05-20T06:48:25;97911.63;;;17.80;69.54
7802;BME280;3945;48.952;9.506;2023-05-20T06:50:53;97911.81;;;17.89;69.82
7802;BME280;3945;48.952;9.506;2023-05-20T06:53:21;97907.13;;;18.00;69.39
7802;BME280;3945;48.952;9.506;2023-05-20T06:55:47;97907.41;;;18.17;69.16
7802;BME280;3945;48.952;9.506;2023-05-20T06:58:14;97922.56;;;18.31;69.78
7802;BME280;3945;48.952;9.506;2023-05-20T07:00:41;97923.59;;;18.36;68.84
7802;BME280;3945;48.952;9.506;2023-05-20T07:03:07;97929.19;;;18.39;68.03
7802;BME280;3945;48.952;9.506;2023-05-20T07:05:35;97927.56;;;18.62;68.09
7802;BME280;3945;48.952;9.506;2023-05-20T07:08:04;97924.16;;;18.89;67.57
7802;BME280;3945;48.952;9.506;2023-05-20T07:10:30;97921.81;;;19.01;66.19
7802;BME280;3945;48.952;9.506;2023-05-20T07:12:57;97916.84;;;19.08;65.46
7802;BME280;3945;48.952;9.506;2023-05-20T07:15:23;97917.81;;;18.98;66.34
7802;BME280;3945;48.952;9.506;2023-05-20T07:17:50;97906.50;;;18.96;65.03
7802;BME280;3945;48.952;9.506;2023-05-20T07:20:16;97911.72;;;18.93;65.96
7802;BME280;3945;48.952;9.506;2023-05-20T07:22:43;97904.84;;;19.00;66.53
7802;BME280;3945;48.952;9.506;2023-05-20T07:25:11;97900.56;;;19.13;65.79
7802;BME280;3945;48.952;9.506;2023-05-20T07:27:38;97899.47;;;19.14;65.08
7802;BME280;3945;48.952;9.506;2023-05-20T07:30:05;97904.59;;;19.16;65.31
7802;BME280;3945;48.952;9.506;2023-05-20T07:32:32;97908.41;;;19.28;62.99
7802;BME280;3945;48.952;9.506;2023-05-20T07:34:59;97894.91;;;19.42;64.06
7802;BME280;3945;48.952;9.506;2023-05-20T07:37:26;97895.75;;;19.70;63.15
7802;BME280;3945;48.952;9.506;2023-05-20T07:39:52;97891.75;;;19.67;61.36
7802;BME280;3945;48.952;9.506;2023-05-20T07:42:20;97889.25;;;19.71;61.90
7802;BME280;3945;48.952;9.506;2023-05-20T07:44:47;97889.44;;;19.74;62.74
7802;BME280;3945;48.952;9.506;2023-05-20T07:47:13;97884.44;;;19.95;64.67
7802;BME280;3945;48.952;9.506;2023-05-20T07:49:40;97876.16;;;20.27;62.24
7802;BME280;3945;48.952;9.506;2023-05-20T07:52:08;97881.50;;;20.55;63.18
7802;BME280;3945;48.952;9.506;2023-05-20T07:54:35;97873.59;;;20.81;61.66
7802;BME280;3945;48.952;9.506;2023-05-20T07:57:01;97868.91;;;20.95;61.88
7802;BME280;3945;48.952;9.506;2023-05-20T07:59:29;97874.41;;;20.81;60.16
7802;BME280;3945;48.952;9.506;2023-05-20T08:01:55;97873.66;;;20.67;61.77
7802;BME280;3945;48.952;9.506;2023-05-20T08:04:21;97871.00;;;20.53;60.89
7802;BME280;3945;48.952;9.506;2023-05-20T08:06:48;97861.97;;;20.58;62.00
7802;BME280;3945;48.952;9.506;2023-05-20T08:09:14;97857.22;;;20.86;63.79
7802;BME280;3945;48.952;9.506;2023-05-20T08:11:41;97855.41;;;21.03;62.29
7802;BME280;3945;48.952;9.506;2023-05-20T08:14:07;97846.16;;;20.96;60.62
7802;BME280;3945;48.952;9.506;2023-05-20T08:16:35;97848.09;;;21.04;59.96
7802;BME280;3945;48.952;9.506;2023-05-20T08:19:01;97850.41;;;20.88;58.08
7802;BME280;3945;48.952;9.506;2023-05-20T08:21:28;97864.91;;;20.70;60.11
7802;BME280;3945;48.952;9.506;2023-05-20T08:23:54;97864.91;;;20.48;60.61
7802;BME280;3945;48.952;9.506;2023-05-20T08:26:20;97862.84;;;20.31;61.14
7802;BME280;3945;48.952;9.506;2023-05-20T08:28:47;97865.47;;;20.22;61.39
7802;BME280;3945;48.952;9.506;2023-05-20T08:31:13;97855.63;;;20.40;63.56
7802;BME280;3945;48.952;9.506;2023-05-20T08:33:43;97859.06;;;20.54;61.48
7802;BME280;3945;48.952;9.506;2023-05-20T08:36:09;97860.97;;;20.76;60.98
7802;BME280;3945;48.952;9.506;2023-05-20T08:38:35;97868.06;;;20.86;60.06
7802;BME280;3945;48.952;9.506;2023-05-20T08:41:02;97863.16;;;20.65;59.69
7802;BME280;3945;48.952;9.506;2023-05-20T08:43:28;97857.09;;;20.69;64.35
7802;BME280;3945;48.952;9.506;2023-05-20T08:45:56;97851.78;;;21.08;64.24
7802;BME280;3945;48.952;9.506;2023-05-20T08:48:23;97853.50;;;21.26;60.70
7802;BME280;3945;48.952;9.506;2023-05-20T08:50:52;97859.53;;;21.23;58.84
7802;BME280;3945;48.952;9.506;2023-05-20T08:53:19;97852.84;;;20.98;58.85
7802;BME280;3945;48.952;9.506;2023-05-20T08:55:51;97854.38;;;20.91;59.78
7802;BME280;3945;48.952;9.506;2023-05-20T08:58:17;97863.97;;;20.97;60.80
7802;BME280;3945;48.952;9.506;2023-05-20T09:00:46;97847.00;;;21.05;59.72
7802;BME280;3945;48.952;9.506;2023-05-20T09:03:13;97839.16;;;21.26;59.78
7802;BME280;3945;48.952;9.506;2023-05-20T09:05:39;97838.81;;;21.58;58.17
7802;BME280;3945;48.952;9.506;2023-05-20T09:08:07;97843.34;;;21.80;59.03
7802;BME280;3945;48.952;9.506;2023-05-20T09:10:34;97835.28;;;22.14;58.07
7802;BME280;3945;48.952;9.506;2023-05-20T09:13:02;97824.91;;;22.51;56.44
7802;BME280;3945;48.952;9.506;2023-05-20T09:15:28;97837.50;;;22.64;55.27
7802;BME280;3945;48.952;9.506;2023-05-20T09:17:54;97830.78;;;22.70;53.67
7802;BME280;3945;48.952;9.506;2023-05-20T09:20:21;97844.03;;;22.63;54.75
7802;BME280;3945;48.952;9.506;2023-05-20T09:22:49;97839.59;;;22.58;52.40
7802;BME280;3945;48.952;9.506;2023-05-20T09:25:18;97837.22;;;22.74;55.43
7802;BME280;3945;48.952;9.506;2023-05-20T09:27:45;97838.13;;;22.87;53.63
7802;BME280;3945;48.952;9.506;2023-05-20T09:30:11;97839.59;;;22.76;53.65
7802;BME280;3945;48.952;9.506;2023-05-20T09:32:38;97825.34;;;22.87;56.19
7802;BME280;3945;48.952;9.506;2023-05-20T09:35:05;97830.56;;;23.10;54.88
7802;BME280;3945;48.952;9.506;2023-05-20T09:37:32;97831.88;;;23.50;54.04
7802;BME280;3945;48.952;9.506;2023-05-20T09:40:03;97825.47;;;23.84;54.99
7802;BME280;3945;48.952;9.506;2023-05-20T09:42:37;97830.19;;;24.17;53.98
7802;BME280;3945;48.952;9.506;2023-05-20T09:45:05;97828.81;;;24.31;51.17
7802;BME280;3945;48.952;9.506;2023-05-20T09:47:33;97829.81;;;24.47;50.88
7802;BME280;3945;48.952;9.506;2023-05-20T09:50:01;97828.63;;;24.36;50.16
7802;BME280;3945;48.952;9.506;2023-05-20T09:52:28;97834.97;;;23.99;50.82
7802;BME280;3945;48.952;9.506;2023-05-20T09:54:55;97828.34;;;23.79;51.39
7802;BME280;3945;48.952;9.506;2023-05-20T09:57:22;97819.50;;;23.91;50.05
7802;BME280;3945;48.952;9.506;2023-05-20T09:59:50;97823.88;;;24.04;52.06
7802;BME280;3945;48.952;9.506;2023-05-20T10:02:17;97830.78;;;24.01;50.66
7802;BME280;3945;48.952;9.506;2023-05-20T10:04:46;97818.72;;;24.11;50.34
7802;BME280;3945;48.952;9.506;2023-05-20T10:07:19;97818.28;;;24.30;50.31
7802;BME280;3945;48.952;9.506;2023-05-20T10:09:54;97813.16;;;24.28;49.72
7802;BME280;3945;48.952;9.506;2023-05-20T10:12:26;97815.94;;;24.40;51.13
7802;BME280;3945;48.952;9.506;2023-05-20T10:14:57;97800.50;;;24.32;49.88
7802;BME280;3945;48.952;9.506;2023-05-20T10:17:30;97801.88;;;24.18;50.00
7802;BME280;3945;48.952;9.506;2023-05-20T10:19:57;97796.34;;;23.85;49.46
7802;BME280;3945;48.952;9.506;2023-05-20T10:22:25;97801.41;;;23.95;50.75
7802;BME280;3945;48.952;9.506;2023-05-20T10:24:57;97806.09;;;24.06;51.86
7802;BME280;3945;48.952;9.506;2023-05-20T10:27:23;97807.50;;;24.12;52.83
7802;BME280;3945;48.952;9.506;2023-05-20T10:29:50;97792.41;;;24.24;50.28
7802;BME280;3945;48.952;9.506;2023-05-20T10:32:25;97792.63;;;24.51;51.82
7802;BME280;3945;48.952;9.506;2023-05-20T10:34:51;97777.50;;;24.63;48.06
7802;BME280;3945;48.952;9.506;2023-05-20T10:37:20;97782.25;;;24.66;50.08
7802;BME280;3945;48.952;9.506;2023-05-20T10:39:48;97781.84;;;24.88;50.21
7802;BME280;3945;48.952;9.506;2023-05-20T10:42:14;97785.78;;;24.99;49.44
7802;BME280;3945;48.952;9.506;2023-05-20T10:44:41;97790.84;;;25.01;49.10
7802;BME280;3945;48.952;9.506;2023-05-20T10:47:08;97774.19;;;25.14;49.68
7802;BME280;3945;48.952;9.506;2023-05-20T10:49:38;97780.13;;;25.28;48.49
7802;BME280;3945;48.952;9.506;2023-05-20T10:52:06;97769.22;;;25.28;47.63
7802;BME280;3945;48.952;9.506;2023-05-20T10:54:34;97772.19;;;25.36;50.08
7802;BME280;3945;48.952;9.506;2023-05-20T10:57:00;97764.00;;;25.48;49.79
7802;BME280;3945;48.952;9.506;2023-05-20T10:59:31;97773.06;;;25.76;47.94
7802;BME280;3945;48.952;9.506;2023-05-20T11:01:58;97769.13;;;25.61;45.99
7802;BME280;3945;48.952;9.506;2023-05-20T11:04:25;97764.69;;;25.69;47.12
7802;BME280;3945;48.952;9.506;2023-05-20T11:06:53;97755.69;;;25.69;46.16
7802;BME280;3945;48.952;9.506;2023-05-20T11:09:19;97762.25;;;25.80;47.96
7802;BME280;3945;48.952;9.506;2023-05-20T11:11:46;97753.75;;;25.81;44.31
7802;BME280;3945;48.952;9.506;2023-05-20T11:14:12;97754.66;;;25.85;44.48
7802;BME280;3945;48.952;9.506;2023-05-20T11:16:41;97745.69;;;25.85;47.80
7802;BME280;3945;48.952;9.506;2023-05-20T11:19:07;97743.38;;;25.99;46.95
7802;BME280;3945;48.952;9.506;2023-05-20T11:21:41;97742.88;;;26.09;45.54
7802;BME280;3945;48.952;9.506;2023-05-20T11:24:08;97742.03;;;26.21;46.90
7802;BME280;3945;48.952;9.506;2023-05-20T11:26:35;97726.88;;;26.35;46.88
7802;BME280;3945;48.952;9.506;2023-05-20T11:29:01;97736.59;;;26.49;47.09
7802;BME280;3945;48.952;9.506;2023-05-20T11:31:28;97735.47;;;26.50;46.39
7802;BME280;3945;48.952;9.506;2023-05-20T11:33:55;97734.53;;;26.46;45.63
7802;BME280;3945;48.952;9.506;2023-05-20T11:36:22;97737.81;;;26.23;45.09
7802;BME280;3945;48.952;9.506;2023-05-20T11:38:48;97729.22;;;26.09;45.46
7802;BME280;3945;48.952;9.506;2023-05-20T11:41:17;97727.78;;;25.99;45.67
7802;BME280;3945;48.952;9.506;2023-05-20T11:43:53;97733.69;;;26.01;46.37
7802;BME280;3945;48.952;9.506;2023-05-20T11:46:20;97724.22;;;26.11;45.64
7802;BME280;3945;48.952;9.506;2023-05-20T11:48:50;97722.13;;;25.92;45.78
7802;BME280;3945;48.952;9.506;2023-05-20T11:51:16;97720.56;;;25.79;45.78
7802;BME280;3945;48.952;9.506;2023-05-20T11:53:42;97718.09;;;25.74;45.27
7802;BME280;3945;48.952;9.506;2023-05-20T11:56:12;97715.03;;;25.76;46.67
7802;BME280;3945;48.952;9.506;2023-05-20T11:58:42;97714.47;;;25.46;46.59
7802;BME280;3945;48.952;9.506;2023-05-20T12:01:09;97706.50;;;25.53;48.45
7802;BME280;3945;48.952;9.506;2023-05-20T12:03:35;97705.16;;;25.71;48.42
7802;BME280;3945;48.952;9.506;2023-05-20T12:06:02;97695.53;;;25.89;46.55
7802;BME280;3945;48.952;9.506;2023-05-20T12:08:28;97702.78;;;25.97;46.50
7802;BME280;3945;48.952;9.506;2023-05-20T12:10:55;97702.72;;;26.10;46.76
7802;BME280;3945;48.952;9.506;2023-05-20T12:13:21;97711.78;;;25.98;44.56
7802;BME280;3945;48.952;9.506;2023-05-20T12:15:49;97695.59;;;25.65;46.06
7802;BME280;3945;48.952;9.506;2023-05-20T12:18:16;97696.31;;;25.50;46.49
7802;BME280;3945;48.952;9.506;2023-05-20T12:20:42;97698.47;;;25.32;46.45
7802;BME280;3945;48.952;9.506;2023-05-20T12:23:08;97689.16;;;25.45;48.78
7802;BME280;3945;48.952;9.506;2023-05-20T12:25:35;97691.75;;;25.66;47.19
7802;BME280;3945;48.952;9.506;2023-05-20T12:28:01;97691.63;;;25.75;46.61
7802;BME280;3945;48.952;9.506;2023-05-20T12:30:28;97690.28;;;25.69;44.95
7802;BME280;3945;48.952;9.506;2023-05-20T12:32:56;97686.97;;;25.51;44.02
7802;BME280;3945;48.952;9.506;2023-05-20T12:35:23;97688.97;;;25.14;46.11
7802;BME280;3945;48.952;9.506;2023-05-20T12:37:50;97686.38;;;25.05;45.36
7802;BME280;3945;48.952;9.506;2023-05-20T12:40:16;97690.47;;;24.99;45.90
7802;BME280;3945;48.952;9.506;2023-05-20T12:42:43;97685.00;;;24.99;45.63
7802;BME280;3945;48.952;9.506;2023-05-20T12:45:10;97691.25;;;25.12;47.34
7802;BME280;3945;48.952;9.506;2023-05-20T12:47:37;97689.06;;;25.29;48.31
7802;BME280;3945;48.952;9.506;2023-05-20T12:50:05;97693.38;;;25.43;47.08
7802;BME280;3945;48.952;9.506;2023-05-20T12:52:31;97689.69;;;25.51;48.45
7802;BME280;3945;48.952;9.506;2023-05-20T12:54:58;97685.50;;;25.53;47.07
7802;BME280;3945;48.952;9.506;2023-05-20T12:57:24;97681.09;;;25.49;46.34
7802;BME280;3945;48.952;9.506;2023-05-20T12:59:51;97677.56;;;25.48;47.07
7802;BME280;3945;48.952;9.506;2023-05-20T13:02:17;97660.81;;;25.34;46.97
7802;BME280;3945;48.952;9.506;2023-05-20T13:04:44;97659.78;;;25.26;46.96
7802;BME280;3945;48.952;9.506;2023-05-20T13:07:11;97661.03;;;25.17;46.61
7802;BME280;3945;48.952;9.506;2023-05-20T13:09:38;97670.25;;;25.12;46.92
7802;BME280;3945;48.952;9.506;2023-05-20T13:12:05;97682.16;;;25.08;47.22
7802;BME280;3945;48.952;9.506;2023-05-20T13:14:31;97689.44;;;25.04;48.81
7802;BME280;3945;48.952;9.506;2023-05-20T13:16:58;97674.91;;;25.00;47.28
7802;BME280;3945;48.952;9.506;2023-05-20T13:19:24;97674.31;;;24.94;46.89
7802;BME280;3945;48.952;9.506;2023-05-20T13:21:50;97671.34;;;24.87;47.88